Charlotte, Tennessee
Current Conditions -  °F | °C
As of 11:52 AM on Friday 21 Nov 2014 (Local Time) from KCKV Reporting Station
Clear Clear  
Wind Chill: 39°   Ceiling: Unl
Heat Index: 45°   Visibility: 10mi
Dew Point: 22°   Wind: 12mph
Humidity: 40%   Direction: 100°E
Pressure: 30.43"   Gusts: NA
Location:  36.18°N, 87.34°W
Report Text: KCKV 211752Z AUTO 10010KT 10SM CLR 07/M06 A3043 RMK AO2 SLP308 T00721056 10072 21033 58010 $
Loading
Personal Weather Stations






























Interactive Weather Map New forecast layout! Learn more

10-Day Weather Forecast

Advertisements
Track Severe Weather on mobile